createdAt,value
2023-05-08T00:01:16.727Z,4.45
2023-05-08T00:03:44.454Z,5.63
2023-05-08T00:06:12.193Z,4.65
2023-05-08T00:08:39.497Z,4.53
2023-05-08T00:11:06.852Z,5.50
2023-05-08T00:13:34.165Z,5.10
2023-05-08T00:16:01.488Z,5.50
2023-05-08T00:18:28.750Z,5.18
2023-05-08T00:20:56.156Z,5.00
2023-05-08T00:23:23.392Z,4.55
2023-05-08T00:25:50.732Z,6.03
2023-05-08T00:28:18.120Z,5.30
2023-05-08T00:30:45.620Z,5.75
2023-05-08T00:33:13.204Z,5.20
2023-05-08T00:35:43.430Z,5.57
2023-05-08T00:38:11.223Z,5.07
2023-05-08T00:40:38.775Z,5.00
2023-05-08T00:43:05.994Z,4.47
2023-05-08T00:45:36.716Z,5.82
2023-05-08T00:48:04.311Z,5.32
2023-05-08T00:50:32.488Z,5.35
2023-05-08T00:53:01.932Z,4.90
2023-05-08T00:55:30.587Z,5.15
2023-05-08T00:57:58.106Z,5.10
2023-05-08T01:00:25.782Z,4.85
2023-05-08T01:02:53.453Z,5.70
2023-05-08T01:05:20.699Z,5.80
2023-05-08T01:07:48.316Z,5.32
2023-05-08T01:10:16.378Z,5.38
2023-05-08T01:13:23.079Z,5.75
2023-05-08T01:15:57.738Z,5.47
2023-05-08T01:18:36.981Z,5.07
2023-05-08T01:21:34.417Z,5.38
2023-05-08T01:24:10.323Z,4.82
2023-05-08T01:26:47.909Z,4.95
2023-05-08T01:29:40.730Z,6.20
2023-05-08T01:32:24.284Z,5.05
2023-05-08T01:35:23.950Z,5.63
2023-05-08T01:38:04.869Z,6.53
2023-05-08T01:40:40.925Z,5.75
2023-05-08T01:43:14.648Z,5.78
2023-05-08T01:45:46.611Z,5.53
2023-05-08T01:48:20.543Z,5.47
2023-05-08T01:50:52.724Z,6.47
2023-05-08T01:53:30.279Z,5.22
2023-05-08T01:56:03.447Z,5.57
2023-05-08T01:58:33.211Z,5.22
2023-05-08T02:01:02.218Z,5.40
2023-05-08T02:03:33.264Z,5.00
2023-05-08T02:06:02.201Z,6.68
2023-05-08T02:08:31.859Z,4.43
2023-05-08T02:11:01.738Z,6.22
2023-05-08T02:13:31.434Z,5.15
2023-05-08T02:16:00.704Z,5.63
2023-05-08T02:18:29.692Z,5.85
2023-05-08T02:21:00.116Z,5.53
2023-05-08T02:23:28.138Z,5.85
2023-05-08T02:25:57.014Z,4.75
2023-05-08T02:28:24.962Z,5.43
2023-05-08T02:30:53.131Z,5.38
2023-05-08T02:33:21.203Z,5.30
2023-05-08T02:35:50.836Z,6.50
2023-05-08T02:38:21.514Z,5.03
2023-05-08T02:40:55.201Z,5.93
2023-05-08T02:43:23.937Z,6.68
2023-05-08T02:46:13.211Z,5.47
2023-05-08T02:49:00.049Z,5.63
2023-05-08T02:51:57.469Z,5.82
2023-05-08T02:54:38.950Z,5.50
2023-05-08T02:57:46.656Z,6.28
2023-05-08T03:00:25.594Z,6.40
2023-05-08T03:03:24.493Z,6.32
2023-05-08T03:05:56.046Z,6.70
2023-05-08T03:08:29.721Z,6.53
2023-05-08T03:11:01.033Z,6.75
2023-05-08T03:13:32.205Z,7.05
2023-05-08T03:16:02.741Z,6.63
2023-05-08T03:18:36.702Z,7.00
2023-05-08T03:21:07.009Z,7.53
2023-05-08T03:23:36.004Z,6.47
2023-05-08T03:26:04.608Z,7.85
2023-05-08T03:28:32.819Z,6.65
2023-05-08T03:31:01.572Z,7.60
2023-05-08T03:33:30.240Z,6.40
2023-05-08T03:35:59.828Z,7.22
2023-05-08T03:38:27.593Z,6.82
2023-05-08T03:40:54.874Z,7.05
2023-05-08T03:43:22.863Z,6.22
2023-05-08T03:45:51.565Z,7.10
2023-05-08T03:48:22.462Z,6.63
2023-05-08T03:50:50.833Z,7.35
2023-05-08T03:53:18.528Z,7.30
2023-05-08T03:55:46.567Z,7.03
2023-05-08T03:58:21.708Z,7.20
2023-05-08T04:01:11.720Z,6.63
2023-05-08T04:03:57.823Z,7.93
2023-05-08T04:06:48.590Z,7.53
2023-05-08T04:09:24.782Z,7.63
2023-05-08T04:12:22.472Z,7.40
2023-05-08T04:15:00.567Z,8.27
2023-05-08T04:17:38.672Z,8.15
2023-05-08T04:20:12.095Z,8.70
2023-05-08T04:22:41.521Z,8.77
2023-05-08T04:25:11.248Z,9.40
2023-05-08T04:27:39.561Z,8.23
2023-05-08T04:30:08.763Z,8.85
2023-05-08T04:32:40.094Z,8.32
2023-05-08T04:35:08.483Z,8.93
2023-05-08T04:37:36.176Z,9.07
2023-05-08T04:40:05.092Z,9.77
2023-05-08T04:42:36.511Z,9.55
2023-05-08T04:45:04.893Z,10.07
2023-05-08T04:47:32.773Z,9.02
2023-05-08T04:50:02.693Z,8.88
2023-05-08T04:52:31.965Z,9.45
2023-05-08T04:54:59.433Z,10.63
2023-05-08T04:57:27.128Z,9.82
2023-05-08T04:59:54.417Z,8.73
2023-05-08T05:02:21.897Z,9.38
2023-05-08T05:04:49.905Z,9.48
2023-05-08T05:07:17.453Z,9.82
2023-05-08T05:09:44.836Z,10.40
2023-05-08T05:12:12.266Z,10.55
2023-05-08T05:14:39.659Z,10.27
2023-05-08T05:17:07.138Z,10.40
2023-05-08T05:19:34.599Z,11.57
2023-05-08T05:22:02.252Z,10.55
2023-05-08T05:24:30.762Z,11.27
2023-05-08T05:26:58.543Z,9.40
2023-05-08T05:29:26.248Z,9.38
2023-05-08T05:31:54.199Z,9.68
2023-05-08T05:34:22.090Z,10.38
2023-05-08T05:36:50.050Z,10.38
2023-05-08T05:39:17.470Z,9.43
2023-05-08T05:41:45.296Z,9.27
2023-05-08T05:44:13.095Z,10.40
2023-05-08T05:46:42.120Z,9.48
2023-05-08T05:49:12.228Z,10.13
2023-05-08T05:51:39.885Z,10.50
2023-05-08T05:54:07.621Z,10.43
2023-05-08T05:56:35.590Z,9.45
2023-05-08T05:59:03.297Z,12.15
2023-05-08T06:01:31.178Z,8.95
2023-05-08T06:03:59.008Z,9.27
2023-05-08T06:06:26.871Z,10.38
2023-05-08T06:08:54.498Z,9.30
2023-05-08T06:11:24.108Z,9.77
2023-05-08T06:13:51.508Z,10.25
2023-05-08T06:16:23.287Z,8.88
2023-05-08T06:18:51.285Z,10.18
2023-05-08T06:21:18.942Z,9.35
2023-05-08T06:23:49.459Z,9.55
2023-05-08T06:26:17.005Z,9.38
2023-05-08T06:28:44.429Z,8.70
2023-05-08T06:31:11.990Z,9.75
2023-05-08T06:33:39.449Z,9.40
2023-05-08T06:36:07.347Z,8.90
2023-05-08T06:38:34.878Z,8.65
2023-05-08T06:41:02.252Z,8.35
2023-05-08T06:43:30.612Z,7.75
2023-05-08T06:45:58.084Z,9.18
2023-05-08T06:48:28.996Z,8.13
2023-05-08T06:50:56.567Z,8.63
2023-05-08T06:53:24.371Z,8.68
2023-05-08T06:55:51.997Z,8.80
2023-05-08T06:58:19.384Z,8.05
2023-05-08T07:00:47.060Z,8.80
2023-05-08T07:03:14.940Z,8.25
2023-05-08T07:05:42.520Z,7.90
2023-05-08T07:08:10.396Z,7.40
2023-05-08T07:10:37.773Z,7.10
2023-05-08T07:13:05.244Z,8.02
2023-05-08T07:15:32.801Z,7.40
2023-05-08T07:18:00.803Z,8.63
2023-05-08T07:20:28.354Z,8.93
2023-05-08T07:22:55.717Z,7.72
2023-05-08T07:25:23.111Z,7.15
2023-05-08T07:27:50.516Z,7.40
2023-05-08T07:30:18.245Z,7.72
2023-05-08T07:32:45.723Z,6.93
2023-05-08T07:35:13.708Z,8.20
2023-05-08T07:37:41.323Z,8.23
2023-05-08T07:40:09.220Z,7.93
2023-05-08T07:42:44.304Z,6.47
2023-05-08T07:45:13.696Z,7.35
2023-05-08T07:47:51.524Z,6.43
2023-05-08T07:50:19.416Z,6.88
2023-05-08T07:52:49.848Z,7.65
2023-05-08T07:55:18.410Z,7.35
2023-05-08T07:57:46.135Z,8.50
2023-05-08T08:00:15.374Z,8.07
2023-05-08T08:02:45.137Z,7.47
2023-05-08T08:05:13.282Z,7.53
2023-05-08T08:07:41.062Z,6.00
2023-05-08T08:10:08.795Z,6.72
2023-05-08T08:12:36.495Z,5.75
2023-05-08T08:15:04.649Z,5.80
2023-05-08T08:17:32.451Z,10.65
2023-05-08T08:19:59.973Z,9.18
2023-05-08T08:22:27.431Z,6.57
2023-05-08T08:24:57.919Z,5.90
2023-05-08T08:27:25.511Z,6.32
2023-05-08T08:30:01.528Z,6.05
2023-05-08T08:32:40.133Z,6.13
2023-05-08T08:35:08.440Z,7.25
2023-05-08T08:37:35.849Z,6.30
2023-05-08T08:40:04.394Z,6.82
2023-05-08T08:42:32.215Z,5.97
2023-05-08T08:45:01.167Z,6.47
2023-05-08T08:47:34.554Z,8.30
2023-05-08T08:50:04.165Z,10.40
2023-05-08T08:52:47.279Z,8.10
2023-05-08T08:55:20.028Z,8.02
2023-05-08T08:57:55.430Z,6.25
2023-05-08T09:00:27.235Z,5.40
2023-05-08T09:02:54.860Z,5.25
2023-05-08T09:05:26.550Z,5.57
2023-05-08T09:07:58.311Z,6.05
2023-05-08T09:10:26.334Z,5.22
2023-05-08T09:12:54.023Z,6.38
2023-05-08T09:15:22.151Z,4.90
2023-05-08T09:17:49.985Z,5.38
2023-05-08T09:20:17.676Z,6.15
2023-05-08T09:22:46.034Z,6.32
2023-05-08T09:25:13.796Z,5.85
2023-05-08T09:27:41.606Z,5.97
2023-05-08T09:30:11.460Z,9.18
2023-05-08T09:32:40.885Z,6.00
2023-05-08T09:35:09.759Z,6.10
2023-05-08T09:37:42.510Z,5.32
2023-05-08T09:40:22.304Z,6.18
2023-05-08T09:42:50.866Z,5.93
2023-05-08T09:45:28.660Z,5.63
2023-05-08T09:47:56.338Z,6.85
2023-05-08T09:50:25.255Z,6.03
2023-05-08T09:52:52.983Z,5.70
2023-05-08T09:55:20.771Z,5.70
2023-05-08T09:57:59.486Z,5.30
2023-05-08T10:00:28.890Z,6.07
2023-05-08T10:03:03.725Z,6.13
2023-05-08T10:05:34.468Z,5.50
2023-05-08T10:08:19.678Z,6.68
2023-05-08T10:10:47.611Z,5.45
2023-05-08T10:13:15.329Z,6.90
2023-05-08T10:15:44.673Z,5.20
2023-05-08T10:18:13.057Z,5.32
2023-05-08T10:20:44.233Z,5.70
2023-05-08T10:23:17.458Z,6.13
2023-05-08T10:25:55.798Z,5.55
2023-05-08T10:28:32.868Z,5.78
2023-05-08T10:31:01.513Z,5.75
2023-05-08T10:33:31.861Z,5.18
2023-05-08T10:36:00.427Z,4.97
2023-05-08T10:38:28.401Z,5.60
2023-05-08T10:40:59.753Z,5.28
2023-05-08T10:43:29.525Z,4.75
2023-05-08T10:45:58.666Z,5.70
2023-05-08T10:48:39.435Z,5.32
2023-05-08T10:51:16.607Z,4.88
2023-05-08T10:53:50.905Z,5.22
2023-05-08T10:56:18.413Z,4.90
2023-05-08T10:58:45.857Z,5.45
2023-05-08T11:01:15.304Z,5.38
2023-05-08T11:03:46.066Z,5.05
2023-05-08T11:06:14.309Z,4.47
2023-05-08T11:08:50.765Z,4.18
2023-05-08T11:11:26.911Z,6.28
2023-05-08T11:13:59.565Z,5.28
2023-05-08T11:17:01.781Z,5.10
2023-05-08T11:19:29.758Z,5.38
2023-05-08T11:22:23.361Z,9.07
2023-05-08T11:24:57.994Z,7.85
2023-05-08T11:27:40.068Z,5.40
2023-05-08T11:30:35.115Z,4.85
2023-05-08T11:33:06.108Z,4.22
2023-05-08T11:35:50.527Z,4.50
2023-05-08T11:38:22.600Z,4.57
2023-05-08T11:40:56.300Z,6.28
2023-05-08T11:43:32.922Z,4.30
2023-05-08T11:46:10.923Z,4.85
2023-05-08T11:48:38.686Z,4.90
2023-05-08T11:51:06.691Z,4.70
2023-05-08T11:53:37.045Z,4.45
2023-05-08T11:56:05.072Z,5.75
2023-05-08T11:58:32.466Z,4.60
2023-05-08T12:01:00.342Z,4.18
2023-05-08T12:03:27.849Z,4.60
2023-05-08T12:05:57.515Z,3.33
2023-05-08T12:08:25.340Z,3.80
2023-05-08T12:10:55.264Z,4.22
2023-05-08T12:13:28.452Z,3.92
2023-05-08T12:16:01.036Z,4.68
2023-05-08T12:18:30.835Z,6.68
2023-05-08T12:21:00.421Z,3.90
2023-05-08T12:23:29.718Z,4.32
2023-05-08T12:26:01.267Z,4.65
2023-05-08T12:28:29.790Z,3.80
2023-05-08T12:30:58.040Z,3.65
2023-05-08T12:33:25.829Z,3.75
2023-05-08T12:35:53.600Z,3.97
2023-05-08T12:38:26.778Z,3.85
2023-05-08T12:40:57.373Z,3.83
2023-05-08T12:43:34.982Z,3.70
2023-05-08T12:46:04.074Z,3.67
2023-05-08T12:48:31.969Z,3.42
2023-05-08T12:51:07.256Z,3.72
2023-05-08T12:53:35.654Z,4.15
2023-05-08T12:56:04.431Z,7.65
2023-05-08T12:58:34.106Z,3.47
2023-05-08T13:01:12.845Z,3.58
2023-05-08T13:03:41.689Z,3.30
2023-05-08T13:06:22.647Z,3.55
2023-05-08T13:08:57.517Z,3.63
2023-05-08T13:11:34.312Z,4.40
2023-05-08T13:14:01.781Z,5.35
2023-05-08T13:16:29.328Z,3.40
2023-05-08T13:18:56.824Z,8.32
2023-05-08T13:21:27.066Z,3.55
2023-05-08T13:23:56.620Z,5.47
2023-05-08T13:26:25.519Z,3.78
2023-05-08T13:28:55.502Z,2.65
2023-05-08T13:31:24.563Z,2.92
2023-05-08T13:33:52.089Z,3.75
2023-05-08T13:36:20.936Z,3.38
2023-05-08T13:38:48.608Z,3.25
2023-05-08T13:41:16.130Z,2.65
2023-05-08T13:43:43.764Z,2.20
2023-05-08T13:46:11.220Z,4.13
2023-05-08T13:48:38.752Z,2.70
2023-05-08T13:51:06.199Z,2.35
2023-05-08T13:53:33.377Z,2.63
2023-05-08T13:56:01.294Z,2.53
2023-05-08T13:58:28.713Z,2.15
2023-05-08T14:00:56.058Z,2.75
2023-05-08T14:03:23.484Z,3.83
2023-05-08T14:05:51.190Z,2.55
2023-05-08T14:08:18.544Z,2.53
2023-05-08T14:10:46.381Z,3.47
2023-05-08T14:13:14.002Z,3.20
2023-05-08T14:15:41.971Z,2.30
2023-05-08T14:18:09.672Z,2.17
2023-05-08T14:20:37.072Z,2.88
2023-05-08T14:23:04.787Z,2.40
2023-05-08T14:25:32.458Z,1.95
2023-05-08T14:27:59.899Z,2.28
2023-05-08T14:30:27.451Z,2.13
2023-05-08T14:32:55.014Z,2.10
2023-05-08T14:35:22.434Z,2.03
2023-05-08T14:37:49.848Z,2.45
2023-05-08T14:40:17.854Z,2.08
2023-05-08T14:42:45.311Z,4.10
2023-05-08T14:45:13.431Z,2.72
2023-05-08T14:47:41.512Z,1.92
2023-05-08T14:50:09.406Z,5.85
2023-05-08T14:52:36.983Z,2.20
2023-05-08T14:55:05.021Z,2.17
2023-05-08T14:57:32.617Z,2.95
2023-05-08T14:59:59.982Z,2.20
2023-05-08T15:02:27.478Z,1.98
2023-05-08T15:04:54.980Z,2.22
2023-05-08T15:07:22.526Z,2.80
2023-05-08T15:09:49.940Z,1.92
2023-05-08T15:12:17.823Z,4.32
2023-05-08T15:14:45.338Z,1.83
2023-05-08T15:17:12.759Z,2.00
2023-05-08T15:19:40.356Z,1.60
2023-05-08T15:22:08.092Z,1.83
2023-05-08T15:24:35.607Z,2.47
2023-05-08T15:27:03.257Z,2.05
2023-05-08T15:29:30.795Z,1.88
2023-05-08T15:31:58.323Z,1.60
2023-05-08T15:34:29.078Z,1.92
2023-05-08T15:36:59.618Z,1.83
2023-05-08T15:39:27.042Z,2.08
2023-05-08T15:41:54.650Z,2.00
2023-05-08T15:44:22.167Z,3.17
2023-05-08T15:46:50.330Z,3.03
2023-05-08T15:49:17.844Z,2.35
2023-05-08T15:51:45.277Z,1.67
2023-05-08T15:54:12.656Z,2.55
2023-05-08T15:56:40.084Z,2.08
2023-05-08T15:59:07.491Z,2.72
2023-05-08T16:01:35.384Z,2.50
2023-05-08T16:04:02.722Z,4.38
2023-05-08T16:06:30.060Z,2.95
2023-05-08T16:08:59.665Z,3.33
2023-05-08T16:11:33.230Z,1.80
2023-05-08T16:14:01.826Z,2.42
2023-05-08T16:16:29.282Z,1.88
2023-05-08T16:18:56.784Z,3.00
2023-05-08T16:21:26.064Z,1.85
2023-05-08T16:23:53.422Z,2.22
2023-05-08T16:26:20.932Z,1.67
2023-05-08T16:28:48.433Z,2.10
2023-05-08T16:31:16.937Z,2.25
2023-05-08T16:33:44.369Z,2.15
2023-05-08T16:36:11.742Z,3.05
2023-05-08T16:38:39.068Z,2.65
2023-05-08T16:41:10.038Z,2.45
2023-05-08T16:43:37.472Z,3.83
2023-05-08T16:46:08.185Z,2.15
2023-05-08T16:48:35.547Z,2.60
2023-05-08T16:51:02.999Z,2.40
2023-05-08T16:53:32.402Z,4.60
2023-05-08T16:55:59.785Z,4.25
2023-05-08T16:58:27.728Z,2.28
2023-05-08T17:00:55.375Z,2.63
2023-05-08T17:03:23.107Z,3.28
2023-05-08T17:05:50.494Z,3.17
2023-05-08T17:08:19.006Z,2.42
2023-05-08T17:10:46.395Z,4.55
2023-05-08T17:13:13.679Z,1.92
2023-05-08T17:15:41.087Z,3.40
2023-05-08T17:18:08.524Z,2.95
2023-05-08T17:20:40.768Z,2.72
2023-05-08T17:23:09.225Z,2.88
2023-05-08T17:25:36.680Z,2.20
2023-05-08T17:28:04.470Z,2.30
2023-05-08T17:30:31.908Z,2.60
2023-05-08T17:32:59.359Z,3.13
2023-05-08T17:35:27.019Z,2.60
2023-05-08T17:37:54.746Z,2.47
2023-05-08T17:40:22.552Z,3.17
2023-05-08T17:42:50.209Z,2.35
2023-05-08T17:45:17.562Z,2.90
2023-05-08T17:47:44.895Z,2.60
2023-05-08T17:50:12.701Z,2.70
2023-05-08T17:52:40.332Z,2.60
2023-05-08T17:55:08.846Z,3.78
2023-05-08T17:57:36.297Z,4.43
2023-05-08T18:00:06.038Z,2.42
2023-05-08T18:02:36.371Z,2.97
2023-05-08T18:05:04.070Z,2.88
2023-05-08T18:07:31.610Z,4.03
2023-05-08T18:09:59.088Z,3.08
2023-05-08T18:12:26.628Z,2.78
2023-05-08T18:14:54.100Z,2.63
2023-05-08T18:17:22.631Z,3.72
2023-05-08T18:19:50.320Z,2.13
2023-05-08T18:22:17.646Z,5.38
2023-05-08T18:24:45.516Z,2.75
2023-05-08T18:27:13.000Z,3.17
2023-05-08T18:29:40.617Z,2.17
2023-05-08T18:32:08.278Z,2.30
2023-05-08T18:34:35.707Z,2.55
2023-05-08T18:37:03.265Z,2.38
2023-05-08T18:39:30.657Z,3.72
2023-05-08T18:41:58.070Z,2.08
2023-05-08T18:44:25.602Z,3.05
2023-05-08T18:46:52.994Z,2.85
2023-05-08T18:49:20.598Z,2.80
2023-05-08T18:51:48.066Z,2.75
2023-05-08T18:54:15.537Z,4.03
2023-05-08T18:56:43.163Z,2.35
2023-05-08T18:59:10.741Z,2.70
2023-05-08T19:01:38.375Z,3.25
2023-05-08T19:04:05.883Z,4.20
2023-05-08T19:06:33.750Z,2.85
2023-05-08T19:09:01.195Z,2.95
2023-05-08T19:11:28.778Z,2.92
2023-05-08T19:13:56.336Z,3.05
2023-05-08T19:16:23.691Z,6.00
2023-05-08T19:18:51.321Z,3.08
2023-05-08T19:21:18.811Z,2.60
2023-05-08T19:23:46.750Z,2.70
2023-05-08T19:26:14.190Z,2.67
2023-05-08T19:28:41.376Z,6.07
2023-05-08T19:31:08.790Z,2.78
2023-05-08T19:33:36.010Z,3.00
2023-05-08T19:36:03.510Z,3.42
2023-05-08T19:38:30.874Z,3.13
2023-05-08T19:40:58.176Z,2.80
2023-05-08T19:43:26.491Z,4.30
2023-05-08T19:45:55.264Z,3.40
2023-05-08T19:48:22.843Z,2.90
2023-05-08T19:50:52.740Z,3.75
2023-05-08T19:53:22.723Z,4.38
2023-05-08T19:55:49.953Z,3.67
2023-05-08T19:58:17.727Z,4.47
2023-05-08T20:00:50.789Z,3.38
2023-05-08T20:03:19.438Z,3.47
2023-05-08T20:05:46.776Z,3.30
2023-05-08T20:08:14.026Z,4.10
2023-05-08T20:10:41.457Z,3.78
2023-05-08T20:13:08.798Z,4.05
2023-05-08T20:15:36.300Z,3.13
2023-05-08T20:18:03.862Z,2.95
2023-05-08T20:20:32.022Z,3.42
2023-05-08T20:22:59.312Z,3.78
2023-05-08T20:25:27.270Z,3.33
2023-05-08T20:27:55.028Z,3.00
2023-05-08T20:30:23.860Z,3.63
2023-05-08T20:32:51.488Z,3.28
2023-05-08T20:35:19.046Z,3.13
2023-05-08T20:37:48.141Z,3.58
2023-05-08T20:40:15.943Z,2.83
2023-05-08T20:42:43.697Z,3.10
2023-05-08T20:45:11.548Z,3.75
2023-05-08T20:47:39.158Z,3.30
2023-05-08T20:50:07.915Z,3.70
2023-05-08T20:52:37.528Z,5.75
2023-05-08T20:55:06.398Z,3.83
2023-05-08T20:57:34.152Z,4.28
2023-05-08T21:00:01.695Z,3.55
2023-05-08T21:02:29.356Z,5.50
2023-05-08T21:04:56.951Z,5.28
2023-05-08T21:07:24.312Z,3.38
2023-05-08T21:09:51.520Z,3.45
2023-05-08T21:12:18.901Z,5.57
2023-05-08T21:14:46.528Z,4.38
2023-05-08T21:17:13.743Z,3.65
2023-05-08T21:19:41.039Z,5.15
2023-05-08T21:22:09.574Z,7.43
2023-05-08T21:24:37.226Z,3.40
2023-05-08T21:27:04.611Z,3.35
2023-05-08T21:29:32.300Z,3.78
2023-05-08T21:31:59.863Z,4.50
2023-05-08T21:34:27.454Z,3.90
2023-05-08T21:36:54.747Z,4.00
2023-05-08T21:39:21.958Z,4.03
2023-05-08T21:41:49.361Z,3.40
2023-05-08T21:44:16.599Z,4.10
2023-05-08T21:46:44.072Z,4.32
2023-05-08T21:49:11.492Z,4.95
2023-05-08T21:51:38.919Z,3.40
2023-05-08T21:54:06.532Z,3.95
2023-05-08T21:56:33.910Z,4.63
2023-05-08T21:59:01.347Z,3.53
2023-05-08T22:01:28.735Z,4.50
2023-05-08T22:03:56.183Z,4.40
2023-05-08T22:06:23.600Z,3.95
2023-05-08T22:08:50.820Z,5.00
2023-05-08T22:11:18.400Z,4.03
2023-05-08T22:13:45.650Z,3.88
2023-05-08T22:16:12.855Z,4.25
2023-05-08T22:18:40.611Z,4.55
2023-05-08T22:21:08.280Z,3.80
2023-05-08T22:23:35.750Z,4.15
2023-05-08T22:26:03.235Z,3.47
2023-05-08T22:28:30.526Z,3.42
2023-05-08T22:30:57.762Z,3.80
2023-05-08T22:33:25.295Z,5.80
2023-05-08T22:35:52.476Z,5.10
2023-05-08T22:38:19.660Z,3.45
2023-05-08T22:40:47.650Z,3.40
2023-05-08T22:43:15.063Z,3.80
2023-05-08T22:45:42.343Z,3.95
2023-05-08T22:48:10.386Z,3.53
2023-05-08T22:50:37.640Z,3.75
2023-05-08T22:53:08.042Z,3.50
2023-05-08T22:55:35.658Z,4.00
2023-05-08T22:58:03.535Z,4.40
2023-05-08T23:00:30.859Z,3.78
2023-05-08T23:02:58.184Z,3.70
2023-05-08T23:05:25.577Z,3.20
2023-05-08T23:07:52.827Z,4.45
2023-05-08T23:10:20.294Z,3.67
2023-05-08T23:12:47.725Z,4.43
2023-05-08T23:15:15.728Z,3.75
2023-05-08T23:17:43.258Z,4.25
2023-05-08T23:20:10.908Z,3.65
2023-05-08T23:22:38.394Z,4.47
2023-05-08T23:25:09.231Z,3.65
2023-05-08T23:27:36.637Z,4.38
2023-05-08T23:30:04.196Z,3.50
2023-05-08T23:32:31.666Z,3.90
2023-05-08T23:34:59.110Z,3.75
2023-05-08T23:37:26.739Z,4.20
2023-05-08T23:39:55.232Z,3.90
2023-05-08T23:42:22.495Z,4.03
2023-05-08T23:44:49.708Z,3.50
2023-05-08T23:47:19.266Z,4.60
2023-05-08T23:49:47.359Z,4.43
2023-05-08T23:52:14.912Z,3.75
2023-05-08T23:54:42.266Z,3.28
2023-05-08T23:57:09.575Z,3.38
2023-05-08T23:59:36.984Z,3.97
